createdAt,value
2022-12-18T07:18:04.769Z,12.30
2022-12-18T07:19:05.881Z,8.82
2022-12-18T07:20:07.301Z,8.77
2022-12-18T07:21:09.344Z,9.00
2022-12-18T07:23:11.165Z,7.75
2022-12-18T07:24:11.998Z,9.65
2022-12-18T07:25:13.197Z,10.25
2022-12-18T07:26:14.820Z,8.57
2022-12-18T07:27:15.946Z,10.00
2022-12-18T07:28:17.747Z,10.10
2022-12-18T07:29:19.126Z,9.35
2022-12-18T07:30:19.986Z,9.05
2022-12-18T07:31:22.058Z,8.68
2022-12-18T07:32:23.091Z,10.07
2022-12-18T07:33:24.962Z,10.53
2022-12-18T07:34:25.999Z,10.20
2022-12-18T07:35:27.142Z,10.13
2022-12-18T07:36:28.060Z,10.80
2022-12-18T07:37:29.243Z,11.82
2022-12-18T07:38:30.448Z,8.93
2022-12-18T07:39:32.540Z,9.68
2022-12-18T07:40:33.396Z,11.77
2022-12-18T07:41:34.528Z,11.27
2022-12-18T07:42:36.341Z,10.27
2022-12-18T07:43:38.075Z,10.27
2022-12-18T07:45:42.626Z,9.20
2022-12-18T07:46:43.808Z,9.32
2022-12-18T07:47:44.914Z,8.63
2022-12-18T07:48:50.075Z,10.38
2022-12-18T07:49:51.430Z,9.27
2022-12-18T07:50:52.468Z,10.15
2022-12-18T07:51:55.197Z,11.20
2022-12-18T07:52:56.349Z,8.77
2022-12-18T07:53:57.659Z,9.98
2022-12-18T07:54:58.495Z,10.10
2022-12-18T07:56:25.889Z,10.48
2022-12-18T07:57:49.098Z,10.35
2022-12-18T07:58:44.544Z,8.10
2022-12-18T07:59:45.761Z,9.45
2022-12-18T08:00:46.921Z,9.30
2022-12-18T08:01:49.101Z,8.25
2022-12-18T08:02:50.417Z,14.10
2022-12-18T08:03:52.276Z,13.18
2022-12-18T08:04:54.396Z,14.70
2022-12-18T08:05:58.380Z,14.32
2022-12-18T08:06:59.666Z,12.65
2022-12-18T08:08:00.509Z,12.88
2022-12-18T08:09:01.645Z,15.45
2022-12-18T08:10:02.683Z,15.63
2022-12-18T08:11:04.825Z,15.93
2022-12-18T08:12:06.367Z,15.45
2022-12-18T08:13:07.221Z,12.27
2022-12-18T08:14:08.371Z,12.80
2022-12-18T08:15:09.671Z,28.75
2022-12-18T08:16:10.891Z,32.58
2022-12-18T08:17:11.810Z,30.83
2022-12-18T08:18:14.509Z,30.35
2022-12-18T08:19:16.257Z,35.60
2022-12-18T08:20:18.596Z,23.73
2022-12-18T08:21:21.484Z,26.55
2022-12-18T08:22:22.682Z,22.42
2022-12-18T08:23:26.458Z,18.30
2022-12-18T08:24:29.744Z,16.00
2022-12-18T08:25:30.652Z,20.88
2022-12-18T08:26:31.985Z,13.85
2022-12-18T08:27:32.833Z,12.13
2022-12-18T08:28:34.343Z,12.77
2022-12-18T08:29:35.212Z,18.42
2022-12-18T08:30:36.488Z,11.65
2022-12-18T08:31:38.300Z,12.05
2022-12-18T08:32:39.185Z,11.57
2022-12-18T08:33:41.867Z,11.73
2022-12-18T08:34:43.847Z,13.63
2022-12-18T08:35:46.108Z,10.65
2022-12-18T08:36:47.167Z,10.73
2022-12-18T08:37:48.316Z,11.27
2022-12-18T08:38:49.151Z,9.68
2022-12-18T08:39:50.265Z,10.18
2022-12-18T08:40:54.926Z,9.18
2022-12-18T08:42:14.107Z,10.07
2022-12-18T08:43:33.438Z,9.95
2022-12-18T08:44:41.479Z,9.90
2022-12-18T08:45:42.368Z,9.90
2022-12-18T08:46:44.240Z,8.60
2022-12-18T08:47:45.083Z,11.55
2022-12-18T08:48:47.649Z,9.85
2022-12-18T08:49:49.447Z,9.93
2022-12-18T08:50:59.698Z,9.70
2022-12-18T08:52:00.986Z,10.30
2022-12-18T08:53:02.401Z,11.05
2022-12-18T08:54:04.105Z,12.18
2022-12-18T08:55:08.347Z,11.23
2022-12-18T08:57:10.349Z,12.82
2022-12-18T08:58:11.477Z,10.77
2022-12-18T08:59:19.154Z,12.80
2022-12-18T09:00:21.092Z,10.93
2022-12-18T09:01:22.340Z,10.88
2022-12-18T09:02:23.736Z,9.35
2022-12-18T09:03:24.757Z,10.52
2022-12-18T09:04:26.012Z,9.48
2022-12-18T09:05:27.883Z,11.10
2022-12-18T09:06:28.728Z,12.82
2022-12-18T09:07:29.904Z,11.90
2022-12-18T09:08:30.745Z,12.80
2022-12-18T09:09:31.850Z,11.83
2022-12-18T09:10:32.748Z,12.13
2022-12-18T09:11:34.281Z,11.30
2022-12-18T09:12:35.162Z,12.80
2022-12-18T09:13:36.373Z,19.07
2022-12-18T09:14:37.257Z,27.48
2022-12-18T09:15:41.060Z,23.40
2022-12-18T09:16:42.423Z,36.05
2022-12-18T09:17:43.334Z,60.53
2022-12-18T09:18:44.505Z,24.38
2022-12-18T09:19:45.687Z,45.88
2022-12-18T09:20:47.447Z,62.47
2022-12-18T09:21:48.787Z,35.88
2022-12-18T09:22:49.810Z,69.70
2022-12-18T09:23:51.738Z,36.92
2022-12-18T09:24:52.603Z,33.17
2022-12-18T09:25:59.271Z,28.33
2022-12-18T09:27:00.389Z,34.65
2022-12-18T09:28:02.225Z,33.88
2022-12-18T09:29:03.399Z,18.67
2022-12-18T09:30:04.831Z,32.25
2022-12-18T09:31:07.671Z,27.13
2022-12-18T09:32:08.798Z,35.38
2022-12-18T09:33:09.665Z,22.20
2022-12-18T09:34:10.767Z,25.43
2022-12-18T09:35:11.602Z,16.10
2022-12-18T09:36:14.740Z,18.58
2022-12-18T09:37:15.876Z,14.38
2022-12-18T09:38:18.138Z,9.80
2022-12-18T09:39:19.267Z,13.95
2022-12-18T09:40:25.485Z,17.35
2022-12-18T09:41:37.169Z,14.38
2022-12-18T09:42:38.385Z,20.92
2022-12-18T09:43:42.427Z,12.48
2022-12-18T09:44:46.660Z,13.80
2022-12-18T09:45:52.050Z,11.98
2022-12-18T09:47:04.560Z,24.15
2022-12-18T09:49:10.868Z,13.30
2022-12-18T09:50:20.318Z,13.65
2022-12-18T09:51:24.684Z,11.68
2022-12-18T09:52:28.117Z,12.35
2022-12-18T09:53:31.806Z,9.45
2022-12-18T09:54:36.561Z,14.75
2022-12-18T09:55:39.039Z,11.88
2022-12-18T09:56:41.646Z,14.88
2022-12-18T09:57:45.855Z,13.63
2022-12-18T09:58:50.361Z,12.23
2022-12-18T09:59:53.869Z,9.15
2022-12-18T10:00:55.242Z,10.27
2022-12-18T10:01:56.873Z,15.40
2022-12-18T10:03:00.050Z,11.48
2022-12-18T10:04:01.468Z,9.93
2022-12-18T10:05:12.891Z,11.00
2022-12-18T10:06:15.661Z,10.70
2022-12-18T10:07:20.735Z,11.55
2022-12-18T10:08:25.277Z,10.23
2022-12-18T10:09:28.738Z,11.00
2022-12-18T10:10:34.069Z,11.85
2022-12-18T10:11:39.177Z,11.35
2022-12-18T10:12:43.149Z,11.13
2022-12-18T10:13:47.472Z,12.05
2022-12-18T10:14:51.623Z,13.27
2022-12-18T10:15:59.030Z,11.90
2022-12-18T10:17:01.046Z,10.30
2022-12-18T10:19:12.661Z,10.45
2022-12-18T10:20:16.614Z,14.93
2022-12-18T10:21:19.506Z,11.55
2022-12-18T10:22:31.807Z,10.68
2022-12-18T10:23:34.009Z,12.02
2022-12-18T10:24:39.846Z,13.63
2022-12-18T10:25:46.239Z,10.70
2022-12-18T10:26:47.696Z,8.73
2022-12-18T10:27:49.531Z,10.13
2022-12-18T10:28:51.495Z,10.10
2022-12-18T10:29:54.282Z,10.48
2022-12-18T10:31:56.201Z,10.27
2022-12-18T10:33:01.017Z,8.17
2022-12-18T10:34:02.130Z,9.32
2022-12-18T10:35:03.438Z,8.80
2022-12-18T10:36:06.532Z,8.35
2022-12-18T10:37:13.196Z,9.05
2022-12-18T10:38:25.266Z,8.90
2022-12-18T10:39:26.534Z,9.13
2022-12-18T10:40:27.438Z,10.63
2022-12-18T10:41:29.385Z,9.48
2022-12-18T10:42:30.529Z,9.50
2022-12-18T10:43:32.881Z,9.40
2022-12-18T10:44:33.729Z,9.60
2022-12-18T10:45:35.345Z,10.83
2022-12-18T10:46:36.573Z,9.32
2022-12-18T10:47:42.322Z,9.30
2022-12-18T10:48:51.255Z,7.82
2022-12-18T10:49:55.182Z,9.05
2022-12-18T10:51:13.666Z,10.40
2022-12-18T10:52:17.884Z,10.25
2022-12-18T10:53:20.530Z,8.52
2022-12-18T10:54:24.366Z,8.85
2022-12-18T10:55:28.157Z,9.23
2022-12-18T10:56:29.726Z,8.30
2022-12-18T10:57:32.689Z,7.60
2022-12-18T10:58:34.598Z,9.07
2022-12-18T11:00:36.470Z,7.80
2022-12-18T11:01:51.239Z,8.68
2022-12-18T11:02:52.526Z,8.73
2022-12-18T11:04:02.711Z,8.35
2022-12-18T11:05:23.404Z,8.30
2022-12-18T11:06:25.261Z,8.27
2022-12-18T11:08:27.192Z,6.00
2022-12-18T11:09:30.109Z,7.07
2022-12-18T11:10:32.615Z,6.85
2022-12-18T11:11:34.002Z,7.78
2022-12-18T11:12:34.906Z,8.02
2022-12-18T11:13:36.181Z,7.15
2022-12-18T11:14:46.777Z,7.35
2022-12-18T11:15:48.814Z,8.15
2022-12-18T11:19:19.555Z,6.43
2022-12-18T11:20:27.603Z,7.43
2022-12-18T11:21:28.461Z,8.30
2022-12-18T11:22:30.629Z,7.00
2022-12-18T11:23:31.762Z,7.00
2022-12-18T11:24:34.545Z,7.75
2022-12-18T11:25:36.350Z,8.50
2022-12-18T11:27:38.901Z,7.15
2022-12-18T11:28:41.699Z,7.63
2022-12-18T11:29:46.626Z,8.25
2022-12-18T11:30:48.177Z,7.22
2022-12-18T11:31:49.340Z,7.30
2022-12-18T11:32:52.753Z,8.50
2022-12-18T11:34:27.375Z,8.07
2022-12-18T11:35:24.058Z,7.80
2022-12-18T11:36:26.180Z,8.25
2022-12-18T11:37:27.685Z,8.00
2022-12-18T11:38:30.265Z,8.02
2022-12-18T11:39:33.288Z,8.40
2022-12-18T11:40:40.831Z,8.88
2022-12-18T11:42:04.060Z,8.07
2022-12-18T11:43:08.967Z,8.95
2022-12-18T11:44:11.892Z,8.50
2022-12-18T11:45:33.925Z,7.97
2022-12-18T11:46:37.072Z,8.07
2022-12-18T11:47:40.194Z,9.07
2022-12-18T11:48:44.961Z,9.73
2022-12-18T11:49:48.150Z,8.60
2022-12-18T11:50:51.796Z,8.50
2022-12-18T11:51:56.001Z,7.97
2022-12-18T11:53:01.479Z,7.28
2022-12-18T11:54:10.637Z,8.48
2022-12-18T11:55:12.358Z,8.90
2022-12-18T11:56:22.408Z,9.15
2022-12-18T11:57:28.110Z,7.85
2022-12-18T11:58:37.399Z,8.40
2022-12-18T11:59:41.372Z,8.07
2022-12-18T12:00:46.197Z,8.32
2022-12-18T12:01:51.096Z,7.38
2022-12-18T12:03:10.080Z,8.40
2022-12-18T12:04:32.232Z,8.68
2022-12-18T12:05:42.433Z,8.65
2022-12-18T12:06:48.183Z,8.55
2022-12-18T12:07:53.519Z,8.98
2022-12-18T12:09:02.007Z,8.73
2022-12-18T12:10:09.878Z,8.13
2022-12-18T12:11:16.114Z,8.68
2022-12-18T12:12:24.769Z,7.15
2022-12-18T12:13:35.772Z,8.55
2022-12-18T12:14:44.943Z,8.90
2022-12-18T12:15:51.567Z,9.80
2022-12-18T12:16:57.575Z,9.45
2022-12-18T12:18:03.866Z,8.43
2022-12-18T12:19:16.298Z,8.00
2022-12-18T12:20:20.764Z,7.85
2022-12-18T12:21:24.339Z,7.55
2022-12-18T12:22:29.584Z,7.70
2022-12-18T12:23:34.971Z,8.07
2022-12-18T12:24:43.562Z,8.77
2022-12-18T12:25:49.076Z,9.02
2022-12-18T12:26:53.154Z,8.45
2022-12-18T12:28:00.106Z,8.55
2022-12-18T12:29:04.229Z,9.65
2022-12-18T12:30:19.405Z,8.98
2022-12-18T12:31:25.502Z,7.78
2022-12-18T12:32:34.947Z,7.93
2022-12-18T12:33:43.727Z,9.15
2022-12-18T12:34:54.792Z,8.40
2022-12-18T12:36:02.533Z,8.30
2022-12-18T12:37:12.152Z,8.27
2022-12-18T12:38:14.866Z,8.23
2022-12-18T12:39:18.999Z,9.07
2022-12-18T12:40:52.088Z,9.20
2022-12-18T12:42:05.392Z,8.38
2022-12-18T12:43:15.529Z,8.98
2022-12-18T12:44:18.285Z,8.95
2022-12-18T12:45:23.278Z,8.52
2022-12-18T12:46:25.764Z,8.80
2022-12-18T12:47:29.112Z,8.57
2022-12-18T12:48:37.096Z,8.30
2022-12-18T12:49:40.960Z,9.65
2022-12-18T12:50:42.487Z,10.90
2022-12-18T12:51:45.348Z,9.50
2022-12-18T12:52:47.727Z,8.90
2022-12-18T12:53:49.511Z,9.07
2022-12-18T12:54:50.980Z,7.88
2022-12-18T12:55:53.336Z,7.45
2022-12-18T12:57:01.149Z,7.18
2022-12-18T12:58:06.388Z,8.25
2022-12-18T12:59:14.556Z,8.48
2022-12-18T13:00:16.483Z,8.63
2022-12-18T13:02:28.307Z,7.78
2022-12-18T13:03:35.319Z,9.20
2022-12-18T13:04:41.374Z,7.80
2022-12-18T13:05:46.502Z,8.85
2022-12-18T13:06:51.012Z,7.72
2022-12-18T13:07:53.777Z,8.35
2022-12-18T13:08:58.020Z,8.10
2022-12-18T13:10:15.445Z,8.75
2022-12-18T13:11:48.512Z,8.07
2022-12-18T13:12:56.728Z,9.30
2022-12-18T13:13:58.009Z,8.85
2022-12-18T13:15:11.977Z,9.75
2022-12-18T13:16:13.201Z,10.70
2022-12-18T13:17:31.155Z,10.18
2022-12-18T13:18:32.987Z,10.73
2022-12-18T13:19:34.052Z,8.50
2022-12-18T13:20:35.555Z,9.27
2022-12-18T13:21:36.738Z,10.85
2022-12-18T13:22:39.454Z,17.08
2022-12-18T13:23:41.395Z,13.05
2022-12-18T13:24:43.273Z,19.48
2022-12-18T13:25:44.446Z,13.93
2022-12-18T13:26:45.836Z,14.07
2022-12-18T13:28:00.122Z,10.95
2022-12-18T13:29:06.270Z,14.77
2022-12-18T13:30:23.052Z,18.45
2022-12-18T13:31:43.428Z,9.82
2022-12-18T13:32:45.144Z,10.65
2022-12-18T13:34:23.991Z,12.38
2022-12-18T13:35:26.212Z,11.05
2022-12-18T13:36:29.145Z,12.40
2022-12-18T13:37:52.407Z,22.17
2022-12-18T13:39:32.724Z,44.47
2022-12-18T13:40:56.444Z,35.97
2022-12-18T13:42:32.943Z,84.45
2022-12-18T13:43:36.330Z,54.17
2022-12-18T13:44:41.155Z,31.90
2022-12-18T13:45:44.737Z,27.48
2022-12-18T13:46:49.494Z,21.85
2022-12-18T13:47:51.145Z,28.13
2022-12-18T13:48:54.757Z,24.35
2022-12-18T13:49:57.009Z,13.77
2022-12-18T13:51:00.824Z,14.57
2022-12-18T13:52:02.104Z,11.82
2022-12-18T13:53:03.599Z,11.07
2022-12-18T13:54:11.857Z,9.68
2022-12-18T13:55:16.449Z,11.10
2022-12-18T13:56:18.115Z,11.23
2022-12-18T13:57:29.270Z,13.15
2022-12-18T13:58:30.697Z,10.60
2022-12-18T13:59:34.355Z,10.40
2022-12-18T14:00:35.434Z,12.95
2022-12-18T14:01:36.675Z,10.40
2022-12-18T14:02:38.666Z,17.33
2022-12-18T14:04:41.319Z,17.08
2022-12-18T14:05:45.347Z,14.55
2022-12-18T14:06:46.736Z,12.30
2022-12-18T14:07:48.022Z,12.43
2022-12-18T14:08:51.820Z,13.23
2022-12-18T14:10:01.996Z,10.45
2022-12-18T14:11:08.249Z,9.45
2022-12-18T14:12:34.708Z,9.18
2022-12-18T14:13:38.112Z,8.07
2022-12-18T14:14:40.876Z,8.27
2022-12-18T14:15:43.027Z,7.55
2022-12-18T14:16:44.839Z,8.52
2022-12-18T14:17:47.072Z,9.18
2022-12-18T14:18:49.791Z,8.50
2022-12-18T14:19:51.672Z,7.88
2022-12-18T14:20:55.336Z,8.02
2022-12-18T14:21:56.474Z,10.43
2022-12-18T14:22:57.945Z,10.45
2022-12-18T14:24:07.252Z,8.70
2022-12-18T14:25:15.302Z,8.30
2022-12-18T14:26:28.329Z,7.90
2022-12-18T14:27:29.466Z,10.20
2022-12-18T14:28:30.529Z,9.02
2022-12-18T14:29:31.804Z,8.50
2022-12-18T14:30:35.269Z,7.88
2022-12-18T14:31:36.624Z,11.35
2022-12-18T14:32:37.772Z,9.57
2022-12-18T14:33:38.949Z,9.02
2022-12-18T14:34:40.455Z,9.45
2022-12-18T14:35:42.663Z,12.55
2022-12-18T14:36:52.473Z,9.30
2022-12-18T14:37:53.924Z,7.75
2022-12-18T14:38:55.588Z,9.80
2022-12-18T14:39:58.170Z,10.23
2022-12-18T14:41:00.509Z,8.05
2022-12-18T14:42:01.674Z,10.68
2022-12-18T14:43:02.850Z,8.70
2022-12-18T14:44:06.234Z,10.00
2022-12-18T14:45:25.761Z,10.45
2022-12-18T14:46:28.731Z,10.88
2022-12-18T14:47:29.781Z,9.88
2022-12-18T14:48:38.415Z,14.17
2022-12-18T14:49:42.694Z,14.35
2022-12-18T14:50:44.921Z,15.27
2022-12-18T14:51:48.457Z,17.27
2022-12-18T14:52:49.728Z,33.58
2022-12-18T14:53:55.464Z,66.85
2022-12-18T14:54:56.976Z,30.30
2022-12-18T14:55:57.864Z,13.40
2022-12-18T14:57:00.873Z,19.23
2022-12-18T14:58:02.145Z,37.50
2022-12-18T14:59:04.261Z,35.55
2022-12-18T15:00:05.837Z,53.80
2022-12-18T15:01:07.332Z,30.63
2022-12-18T15:02:13.737Z,41.95
2022-12-18T15:03:17.996Z,65.97
2022-12-18T15:04:25.003Z,33.20
2022-12-18T15:05:27.686Z,41.00
2022-12-18T15:06:33.381Z,24.83
2022-12-18T15:07:40.900Z,64.28
2022-12-18T15:08:42.875Z,80.18
2022-12-18T15:09:44.541Z,49.15
2022-12-18T15:10:47.674Z,12.55
2022-12-18T15:11:49.002Z,89.00
2022-12-18T15:12:51.293Z,27.95
2022-12-18T15:13:52.228Z,62.72
2022-12-18T15:14:53.388Z,24.33
2022-12-18T15:15:56.282Z,14.10
2022-12-18T15:16:58.610Z,11.32
2022-12-18T15:17:59.927Z,15.07
2022-12-18T15:19:01.444Z,23.08
2022-12-18T15:20:04.356Z,10.80
2022-12-18T15:21:09.253Z,12.38
2022-12-18T15:22:19.688Z,11.77
2022-12-18T15:23:22.277Z,35.97
2022-12-18T15:24:25.412Z,13.40
2022-12-18T15:25:29.623Z,11.02
2022-12-18T15:26:37.197Z,11.68
2022-12-18T15:27:38.329Z,35.83
2022-12-18T15:28:43.488Z,26.10
2022-12-18T20:53:12.070Z,19.35
2022-12-18T20:54:13.194Z,29.95
2022-12-18T20:55:14.446Z,11.95
2022-12-18T20:56:17.733Z,20.27
2022-12-18T20:57:22.558Z,17.33
2022-12-18T20:58:23.817Z,18.55
2022-12-18T20:59:25.307Z,10.55
2022-12-18T21:00:26.132Z,9.15
2022-12-18T21:01:29.829Z,9.63
2022-12-18T21:02:31.400Z,8.40
2022-12-18T21:03:32.499Z,10.75
2022-12-18T21:04:33.657Z,9.95
2022-12-18T21:05:34.738Z,10.57
2022-12-18T21:06:37.953Z,10.48
2022-12-18T21:07:39.341Z,11.68
2022-12-18T21:08:41.038Z,9.95
2022-12-18T21:09:42.152Z,7.90
2022-12-18T21:10:42.972Z,10.45
2022-12-18T21:12:02.267Z,10.67
2022-12-18T21:13:05.866Z,9.23
2022-12-18T21:14:09.412Z,9.45
2022-12-18T21:15:10.799Z,12.32
2022-12-18T21:16:11.673Z,10.90
2022-12-18T21:17:12.998Z,13.75
2022-12-18T21:18:14.245Z,12.15
2022-12-18T21:19:16.340Z,10.80
2022-12-18T21:20:18.872Z,10.85
2022-12-18T21:21:26.255Z,9.60
2022-12-18T21:22:28.249Z,14.93
2022-12-18T21:23:29.634Z,14.98
2022-12-18T21:24:32.878Z,12.48
2022-12-18T21:25:34.419Z,14.77
2022-12-18T21:26:39.191Z,11.45
2022-12-18T21:27:44.711Z,9.13
2022-12-18T21:28:45.809Z,14.38
2022-12-18T21:29:47.113Z,10.65
2022-12-18T21:30:48.416Z,9.38
2022-12-18T21:31:50.519Z,8.60
2022-12-18T21:32:51.356Z,8.23
2022-12-18T21:33:54.587Z,8.07
2022-12-18T21:35:01.361Z,7.45
2022-12-18T21:36:03.018Z,8.10
2022-12-18T21:37:04.281Z,8.93
2022-12-18T21:38:06.015Z,9.30
2022-12-18T21:39:06.930Z,8.93
2022-12-18T21:40:09.712Z,8.10
2022-12-18T21:41:31.973Z,8.60
2022-12-18T21:42:51.138Z,8.98
2022-12-18T21:44:07.151Z,10.05
2022-12-18T21:45:08.588Z,8.13
2022-12-18T21:46:09.513Z,15.57
2022-12-18T21:47:23.043Z,10.53
2022-12-18T21:48:24.550Z,11.07
2022-12-18T21:49:25.788Z,10.60
2022-12-18T21:50:26.953Z,9.88
2022-12-18T21:51:27.932Z,9.77
2022-12-18T21:52:32.182Z,10.25
2022-12-18T21:53:33.565Z,10.30
2022-12-18T21:54:34.708Z,12.70
2022-12-18T21:55:36.502Z,17.35
2022-12-18T21:56:44.809Z,13.88
2022-12-18T21:57:45.917Z,11.93
2022-12-18T21:58:55.477Z,18.58
2022-12-18T21:59:58.591Z,13.68
2022-12-18T22:00:59.490Z,8.95
2022-12-18T22:02:02.211Z,9.30
2022-12-18T22:03:17.487Z,8.35
2022-12-18T22:04:20.423Z,9.70
2022-12-18T22:05:22.961Z,9.38
2022-12-18T22:06:23.841Z,8.90
2022-12-18T22:07:25.896Z,9.93
2022-12-18T22:09:27.849Z,8.05
2022-12-18T22:10:28.689Z,14.18
2022-12-18T22:11:30.482Z,14.48
2022-12-18T22:12:43.116Z,9.10
2022-12-18T22:13:45.426Z,8.63
2022-12-18T22:14:46.539Z,26.47
2022-12-18T22:15:47.481Z,16.42
2022-12-18T22:16:49.054Z,24.87
2022-12-18T22:17:50.317Z,21.58
2022-12-18T22:18:51.470Z,20.42
2022-12-18T22:19:52.296Z,13.27
2022-12-18T22:21:00.356Z,15.15
2022-12-18T22:22:01.228Z,17.58
2022-12-18T22:23:04.263Z,11.93
2022-12-18T22:24:08.266Z,12.35
2022-12-18T22:25:09.953Z,15.23
2022-12-18T22:26:11.077Z,14.88
2022-12-18T22:27:12.842Z,9.35
2022-12-18T22:28:32.318Z,12.50
2022-12-18T22:29:51.787Z,13.75
2022-12-18T22:30:57.753Z,16.42
2022-12-18T22:32:00.865Z,8.93
2022-12-18T22:33:01.785Z,8.15
2022-12-18T22:34:03.461Z,7.97
2022-12-18T22:35:08.408Z,16.13
2022-12-18T22:36:13.984Z,13.10
2022-12-18T22:37:16.961Z,10.88
2022-12-18T22:38:18.270Z,13.10
2022-12-18T22:39:20.266Z,13.10
2022-12-18T22:40:25.432Z,14.23
2022-12-18T22:41:26.962Z,13.38
2022-12-18T22:42:30.921Z,11.20
2022-12-18T22:43:32.674Z,9.30
2022-12-18T22:44:33.875Z,9.07
2022-12-18T22:45:36.306Z,11.55
2022-12-18T22:46:41.568Z,11.00
2022-12-18T22:47:42.416Z,10.50
2022-12-18T22:48:43.562Z,10.03
2022-12-18T22:49:44.473Z,7.68
2022-12-18T22:50:45.574Z,10.05
2022-12-18T22:51:46.805Z,8.55
2022-12-18T22:52:47.911Z,8.10
2022-12-18T22:53:48.769Z,9.00
2022-12-18T22:54:50.570Z,8.45
2022-12-18T22:55:51.402Z,9.25
